Time;durP1;ratioP1;P1;durP2;ratioP2;P2;SDS_P1;SDS_P2;PMS_P1;PMS_P2;Temp;Humidity;BMP_temperature;BMP_pressure;BME280_temperature;BME280_humidity;BME280_pressure;Samples;Min_cycle;Max_cycle;Signal;HPM_P1;HPM_P2
2023/05/21 00:00:11;;;;;;;;;;;17.30;99.90;17.50;99024.00;;;;344655;28;82538;-96
2023/05/21 00:00:24;;;;;;;;;;;17.30;99.90;17.50;99021.00;;;;346056;28;85482;-96
2023/05/21 00:00:36;;;;;;;;;;;17.30;99.90;17.40;99026.00;;;;344701;28;82527;-96
2023/05/21 00:00:50;;;;;;;;;;;17.30;99.90;17.40;99025.00;;;;343527;28;82505;-96
2023/05/21 00:01:04;;;;;;;;;;;17.30;99.90;17.50;99025.00;;;;344724;28;82430;-96
2023/05/21 00:01:17;;;;;;;;;;;17.30;99.90;17.50;99024.00;;;;346191;28;83118;-96
2023/05/21 00:01:32;;;;;;;;;;;17.30;99.90;17.50;99017.00;;;;346047;28;82485;-96
2023/05/21 00:01:47;;;;;;;;;;;17.30;99.90;17.50;99016.00;;;;347000;28;83240;-96
2023/05/21 00:02:02;;;;;;;;;;;17.30;99.90;17.50;99034.00;;;;345949;28;82567;-96
2023/05/21 00:02:17;;;;;;;;;;;17.30;99.90;17.50;99022.00;;;;343397;28;84402;-96
2023/05/21 00:02:29;;;;;;;;;;;17.30;99.90;17.50;99026.00;;;;343675;28;83832;-96
2023/05/21 00:02:43;;;;;;;;;;;17.30;99.90;17.50;99010.00;;;;343507;28;84285;-96
2023/05/21 00:02:57;;;;;;;;;;;17.30;99.90;17.60;99024.00;;;;344489;28;82519;-96
2023/05/21 00:03:13;;;;;;;;;;;17.30;99.90;17.60;99032.00;;;;344289;28;84918;-96
2023/05/21 00:03:27;;;;;;;;;;;17.30;99.90;17.60;99022.00;;;;344557;28;82585;-96
2023/05/21 00:03:44;;;;;;;;;;;17.30;99.90;17.50;99028.00;;;;344910;28;84141;-96
2023/05/21 00:03:58;;;;;;;;;;;17.30;99.90;17.60;99029.00;;;;343590;28;82380;-96
2023/05/21 00:04:12;;;;;;;;;;;17.30;99.90;17.60;99026.00;;;;343606;28;83403;-96
2023/05/21 00:04:27;;;;;;;;;;;17.30;99.90;17.50;99025.00;;;;345019;28;82392;-94
2023/05/21 00:04:40;;;;;;;;;;;17.30;99.90;17.60;99021.00;;;;344792;28;84020;-96
2023/05/21 00:04:53;;;;;;;;;;;17.30;99.90;17.60;99025.00;;;;343513;28;82264;-96
2023/05/21 00:05:13;;;;;;;;;;;17.30;99.90;17.70;99024.00;;;;346012;28;83361;-96
2023/05/21 00:05:26;;;;;;;;;;;17.30;99.90;17.80;99028.00;;;;346068;28;82369;-96
2023/05/21 00:05:41;;;;;;;;;;;17.40;99.90;17.70;99023.00;;;;344542;28;84141;-96
2023/05/21 00:05:54;;;;;;;;;;;17.40;99.90;17.70;99022.00;;;;343311;28;82379;-96
2023/05/21 00:06:06;;;;;;;;;;;17.40;99.90;17.60;99017.00;;;;344628;28;83108;-96
2023/05/21 00:06:19;;;;;;;;;;;17.40;99.90;17.60;99017.00;;;;344726;28;82393;-96
2023/05/21 00:06:34;;;;;;;;;;;17.40;99.90;17.70;99021.00;;;;342780;28;85966;-96
2023/05/21 00:06:47;;;;;;;;;;;17.40;99.90;17.60;99023.00;;;;345183;28;82586;-96
2023/05/21 00:07:00;;;;;;;;;;;17.40;99.90;17.70;99029.00;;;;345347;28;83410;-91
2023/05/21 00:07:14;;;;;;;;;;;17.40;99.90;17.60;99021.00;;;;347942;28;82598;-93
2023/05/21 00:07:26;;;;;;;;;;;17.40;99.90;17.60;99028.00;;;;346792;28;84573;-89
2023/05/21 00:07:40;;;;;;;;;;;17.40;99.90;17.60;99025.00;;;;344562;28;82327;-89
2023/05/21 00:08:57;;;;;;;;;;;17.40;99.90;17.80;99032.00;;;;341155;28;84034;-96
2023/05/21 00:09:11;;;;;;;;;;;17.40;99.90;17.70;99026.00;;;;341009;28;85630;-91
2023/05/21 00:09:23;;;;;;;;;;;17.40;99.90;17.70;99033.00;;;;339936;28;82547;-92
2023/05/21 00:09:39;;;;;;;;;;;17.40;99.90;17.60;99023.00;;;;340979;28;85614;-90
2023/05/21 00:09:52;;;;;;;;;;;17.50;99.90;17.60;99025.00;;;;342338;28;82601;-91
2023/05/21 00:10:06;;;;;;;;;;;17.40;99.90;17.60;99021.00;;;;341550;28;82611;-95
2023/05/21 00:10:19;;;;;;;;;;;17.40;99.90;17.70;99020.00;;;;341428;28;82559;-89
2023/05/21 00:10:32;;;;;;;;;;;17.40;99.90;17.60;99009.00;;;;342532;28;84523;-91
2023/05/21 00:10:45;;;;;;;;;;;17.40;99.90;17.60;99025.00;;;;341645;28;82157;-90
2023/05/21 00:10:58;;;;;;;;;;;17.40;99.90;17.60;99018.00;;;;341245;28;83535;-93
2023/05/21 00:11:43;;;;;;;;;;;17.40;99.90;17.60;99021.00;;;;339723;28;83679;-96
2023/05/21 00:11:56;;;;;;;;;;;17.40;99.90;17.60;99019.00;;;;341097;28;83429;-89
2023/05/21 00:12:09;;;;;;;;;;;17.40;99.90;17.60;99023.00;;;;339192;28;82328;-89
2023/05/21 00:12:21;;;;;;;;;;;17.40;99.90;17.70;99016.00;;;;343079;28;84157;-89
2023/05/21 00:12:34;;;;;;;;;;;17.40;99.90;17.70;99023.00;;;;344407;28;82205;-91
2023/05/21 00:12:46;;;;;;;;;;;17.40;99.90;17.70;99020.00;;;;338800;28;82710;-90
2023/05/21 00:12:58;;;;;;;;;;;17.40;99.90;17.70;99026.00;;;;342662;28;82544;-90
2023/05/21 00:13:11;;;;;;;;;;;17.40;99.90;17.50;99021.00;;;;341779;28;82204;-89
2023/05/21 00:13:23;;;;;;;;;;;17.40;99.90;17.70;99030.00;;;;342505;28;82452;-89
2023/05/21 00:13:37;;;;;;;;;;;17.40;99.90;17.80;99030.00;;;;342693;28;84670;-92
2023/05/21 00:13:51;;;;;;;;;;;17.40;99.90;17.80;99022.00;;;;339932;28;82407;-95
2023/05/21 00:14:04;;;;;;;;;;;17.40;99.90;17.70;99025.00;;;;341761;28;83434;-96
2023/05/21 00:14:16;;;;;;;;;;;17.40;99.90;17.70;99029.00;;;;341524;28;82397;-96
2023/05/21 00:14:30;;;;;;;;;;;17.40;99.90;17.70;99026.00;;;;340371;28;84324;-96
2023/05/21 00:14:42;;;;;;;;;;;17.50;99.90;17.70;99029.00;;;;342036;28;82484;-96
2023/05/21 00:14:54;;;;;;;;;;;17.50;99.90;17.70;99026.00;;;;340212;28;83153;-96
2023/05/21 00:15:08;;;;;;;;;;;17.40;99.90;17.80;99022.00;;;;342942;28;82271;-96
2023/05/21 00:15:21;;;;;;;;;;;17.50;99.90;17.80;99025.00;;;;344340;28;86181;-96
2023/05/21 00:15:33;;;;;;;;;;;17.50;99.90;17.70;99025.00;;;;343329;28;82303;-97
2023/05/21 00:15:46;;;;;;;;;;;17.50;99.90;17.70;99024.00;;;;342493;28;85274;-96
2023/05/21 00:15:58;;;;;;;;;;;17.50;99.90;17.70;99032.00;;;;342921;28;82635;-96
2023/05/21 00:16:11;;;;;;;;;;;17.40;99.90;17.70;99019.00;;;;340246;28;82885;-96
2023/05/21 00:16:24;;;;;;;;;;;17.50;99.90;17.70;99028.00;;;;339302;28;82398;-96
2023/05/21 00:16:36;;;;;;;;;;;17.50;99.90;17.70;99032.00;;;;340588;28;85627;-97
2023/05/21 00:16:49;;;;;;;;;;;17.50;99.90;17.60;99016.00;;;;340785;28;82577;-96
2023/05/21 00:17:02;;;;;;;;;;;17.40;99.90;17.70;99027.00;;;;340505;28;83277;-96
2023/05/21 00:17:15;;;;;;;;;;;17.40;99.90;17.60;99013.00;;;;341842;28;82494;-96
2023/05/21 00:17:27;;;;;;;;;;;17.40;99.90;17.70;99024.00;;;;339829;28;86022;-96
2023/05/21 00:17:40;;;;;;;;;;;17.40;99.90;17.70;99013.00;;;;341240;28;82547;-96
2023/05/21 00:17:53;;;;;;;;;;;17.50;99.90;17.80;99020.00;;;;341067;28;85291;-96
2023/05/21 00:18:05;;;;;;;;;;;17.50;99.90;17.70;99024.00;;;;341690;28;82483;-96
2023/05/21 00:18:17;;;;;;;;;;;17.50;99.90;17.70;99024.00;;;;341513;28;82413;-96
2023/05/21 00:18:31;;;;;;;;;;;17.50;99.90;17.80;99019.00;;;;341372;28;82607;-96
2023/05/21 00:18:44;;;;;;;;;;;17.40;99.90;17.80;99020.00;;;;338974;28;82792;-96
2023/05/21 00:18:56;;;;;;;;;;;17.50;99.90;17.80;99017.00;;;;339083;28;82484;-96
2023/05/21 00:19:09;;;;;;;;;;;17.50;99.90;17.80;99019.00;;;;338573;28;83131;-96
2023/05/21 00:19:22;;;;;;;;;;;17.50;99.90;17.70;99018.00;;;;340677;28;82276;-96
2023/05/21 00:19:34;;;;;;;;;;;17.50;99.90;17.70;99015.00;;;;340267;28;83987;-96
2023/05/21 00:19:48;;;;;;;;;;;17.50;99.90;17.70;99016.00;;;;341172;28;82557;-96
2023/05/21 00:20:04;;;;;;;;;;;17.50;99.90;17.70;99020.00;;;;339987;28;83182;-96
2023/05/21 00:20:17;;;;;;;;;;;17.50;99.90;17.80;99017.00;;;;342847;28;82513;-96
2023/05/21 00:20:31;;;;;;;;;;;17.50;99.90;17.80;99011.00;;;;341250;28;85694;-96
2023/05/21 00:20:44;;;;;;;;;;;17.50;99.90;17.90;99009.00;;;;341464;28;82320;-96
2023/05/21 00:20:58;;;;;;;;;;;17.50;99.90;17.80;99012.00;;;;344260;28;85379;-96
2023/05/21 00:21:11;;;;;;;;;;;17.50;99.90;17.80;99011.00;;;;344389;28;82479;-96
2023/05/21 00:21:24;;;;;;;;;;;17.50;99.90;17.70;99019.00;;;;341693;28;85044;-96
2023/05/21 00:21:38;;;;;;;;;;;17.50;99.90;17.70;99018.00;;;;340816;28;82420;-96
2023/05/21 00:21:54;;;;;;;;;;;17.50;99.90;17.70;99017.00;;;;340191;28;83372;-96
2023/05/21 00:22:07;;;;;;;;;;;17.50;99.90;17.80;99013.00;;;;341525;28;82572;-96
2023/05/21 00:22:20;;;;;;;;;;;17.50;99.90;17.80;99016.00;;;;340898;28;83370;-96
2023/05/21 00:22:32;;;;;;;;;;;17.50;99.90;17.90;99019.00;;;;341609;28;82459;-96
2023/05/21 00:22:44;;;;;;;;;;;17.50;99.90;17.80;99022.00;;;;343037;28;83286;-96
2023/05/21 00:23:03;;;;;;;;;;;17.50;99.90;17.80;99016.00;;;;340198;28;82429;-96
2023/05/21 00:23:17;;;;;;;;;;;17.50;99.90;17.70;99017.00;;;;340785;28;84182;-96
2023/05/21 00:23:31;;;;;;;;;;;17.50;99.90;17.60;99009.00;;;;339388;28;82404;-96
2023/05/21 00:23:44;;;;;;;;;;;17.50;99.90;17.70;99005.00;;;;339331;28;82636;-96
2023/05/21 00:23:56;;;;;;;;;;;17.50;99.90;17.60;99012.00;;;;341032;28;82391;-96
2023/05/21 00:24:08;;;;;;;;;;;17.50;99.90;17.60;99004.00;;;;343308;28;84886;-96
2023/05/21 00:24:21;;;;;;;;;;;17.50;99.90;17.70;99017.00;;;;339178;28;82592;-96
2023/05/21 00:24:33;;;;;;;;;;;17.50;99.90;17.70;99009.00;;;;338905;28;85348;-96
2023/05/21 00:24:46;;;;;;;;;;;17.50;99.90;17.70;99011.00;;;;340722;28;82264;-96
2023/05/21 00:24:58;;;;;;;;;;;17.50;99.90;17.70;99019.00;;;;341685;28;85513;-96
2023/05/21 00:25:12;;;;;;;;;;;17.50;99.90;17.70;99014.00;;;;343634;28;82376;-96
2023/05/21 00:25:28;;;;;;;;;;;17.50;99.90;17.70;99021.00;;;;339257;28;83574;-96
2023/05/21 00:25:41;;;;;;;;;;;17.50;99.90;17.70;99019.00;;;;340360;28;82428;-96
2023/05/21 00:25:53;;;;;;;;;;;17.50;99.90;17.70;99016.00;;;;342844;28;85236;-96
2023/05/21 00:26:08;;;;;;;;;;;17.50;99.90;17.70;99012.00;;;;340172;28;82568;-96
2023/05/21 00:26:21;;;;;;;;;;;17.50;99.90;17.70;99017.00;;;;339614;28;83509;-96
2023/05/21 00:26:33;;;;;;;;;;;17.50;99.90;17.70;99014.00;;;;342083;28;82497;-96
2023/05/21 00:26:45;;;;;;;;;;;17.50;99.90;17.70;99017.00;;;;343104;28;86057;-96
2023/05/21 00:26:58;;;;;;;;;;;17.50;99.90;17.70;99017.00;;;;340851;28;82506;-96
2023/05/21 00:27:10;;;;;;;;;;;17.50;99.90;17.70;99016.00;;;;343312;28;83398;-96
2023/05/21 00:27:23;;;;;;;;;;;17.50;99.90;17.70;99023.00;;;;343791;28;82414;-94
2023/05/21 00:27:36;;;;;;;;;;;17.50;99.90;17.70;99021.00;;;;340456;28;83360;-96
2023/05/21 00:27:48;;;;;;;;;;;17.50;99.90;17.70;99022.00;;;;340587;28;82484;-96
2023/05/21 00:28:01;;;;;;;;;;;17.50;99.90;17.70;99025.00;;;;342090;28;82486;-96
2023/05/21 00:28:13;;;;;;;;;;;17.50;99.90;17.70;99019.00;;;;345804;28;82548;-96
2023/05/21 00:28:26;;;;;;;;;;;17.50;99.90;17.70;99017.00;;;;341978;28;83273;-96
2023/05/21 00:28:38;;;;;;;;;;;17.50;99.90;17.70;99007.00;;;;339386;28;82478;-96
2023/05/21 00:28:51;;;;;;;;;;;17.50;99.90;17.70;99015.00;;;;339208;28;85201;-96
2023/05/21 00:29:03;;;;;;;;;;;17.50;99.90;17.70;99019.00;;;;342975;28;82535;-95
2023/05/21 00:29:16;;;;;;;;;;;17.50;99.90;17.70;99021.00;;;;341631;28;85924;-96
2023/05/21 00:29:28;;;;;;;;;;;17.40;99.90;17.70;99018.00;;;;340530;28;82529;-96
2023/05/21 00:29:41;;;;;;;;;;;17.40;99.90;17.70;99028.00;;;;337626;28;83112;-96
2023/05/21 00:29:55;;;;;;;;;;;17.50;99.90;17.70;99018.00;;;;339303;28;82565;-96
2023/05/21 00:30:09;;;;;;;;;;;17.40;99.90;17.70;99024.00;;;;339126;28;85248;-96
2023/05/21 00:30:21;;;;;;;;;;;17.50;99.90;17.60;99015.00;;;;340210;28;82550;-96
2023/05/21 00:30:33;;;;;;;;;;;17.40;99.90;17.70;99026.00;;;;341651;28;85205;-96
2023/05/21 00:30:46;;;;;;;;;;;17.40;99.90;17.70;99025.00;;;;341574;28;82576;-96
2023/05/21 00:31:00;;;;;;;;;;;17.40;99.90;17.70;99022.00;;;;340133;28;84927;-96
2023/05/21 00:31:13;;;;;;;;;;;17.50;99.90;17.70;99026.00;;;;341810;28;82503;-96
2023/05/21 00:31:25;;;;;;;;;;;17.50;99.90;17.70;99026.00;;;;341119;28;83859;-96
2023/05/21 00:31:37;;;;;;;;;;;17.40;99.90;17.70;99024.00;;;;340387;28;82428;-96
2023/05/21 00:31:51;;;;;;;;;;;17.40;99.90;17.70;99025.00;;;;340136;28;83719;-96
2023/05/21 00:32:05;;;;;;;;;;;17.40;99.90;17.70;99020.00;;;;339022;28;82476;-96
2023/05/21 00:32:19;;;;;;;;;;;17.50;99.90;17.60;99020.00;;;;339828;28;82979;-96
2023/05/21 00:32:36;;;;;;;;;;;17.50;99.90;17.70;99031.00;;;;339083;28;83692;-96
2023/05/21 00:32:48;;;;;;;;;;;17.50;99.90;17.80;99024.00;;;;341709;28;84960;-96
2023/05/21 00:33:01;;;;;;;;;;;17.40;99.90;17.80;99024.00;;;;340223;28;82341;-96
2023/05/21 00:33:14;;;;;;;;;;;17.40;99.90;17.80;99023.00;;;;341581;28;82762;-96
2023/05/21 00:33:27;;;;;;;;;;;17.50;99.90;17.80;99033.00;;;;341683;28;82554;-96
2023/05/21 00:33:42;;;;;;;;;;;17.50;99.90;17.80;99037.00;;;;339641;28;85000;-96
2023/05/21 00:33:54;;;;;;;;;;;17.50;99.90;17.80;99023.00;;;;342980;28;82455;-96
2023/05/21 00:34:06;;;;;;;;;;;17.50;99.90;17.80;99028.00;;;;345266;28;85663;-96
2023/05/21 00:34:18;;;;;;;;;;;17.50;99.90;17.70;99027.00;;;;341083;28;82522;-96
2023/05/21 00:34:31;;;;;;;;;;;17.50;99.90;17.60;99025.00;;;;340150;28;83322;-96
2023/05/21 00:34:44;;;;;;;;;;;17.50;99.90;17.50;99030.00;;;;342770;28;82524;-96
2023/05/21 00:34:57;;;;;;;;;;;17.40;99.90;17.50;99036.00;;;;343034;28;83306;-96
2023/05/21 00:35:09;;;;;;;;;;;17.40;99.90;17.60;99030.00;;;;343171;28;82528;-96
2023/05/21 00:35:22;;;;;;;;;;;17.40;99.90;17.60;99024.00;;;;340165;28;84181;-96
2023/05/21 00:35:34;;;;;;;;;;;17.50;99.90;17.60;99025.00;;;;338769;28;82541;-96
2023/05/21 00:35:47;;;;;;;;;;;17.40;99.90;17.70;99033.00;;;;340104;28;83014;-96
2023/05/21 00:35:59;;;;;;;;;;;17.40;99.90;17.70;99023.00;;;;342723;28;82429;-96
2023/05/21 00:36:13;;;;;;;;;;;17.40;99.90;17.70;99021.00;;;;342737;28;83177;-96
2023/05/21 00:36:25;;;;;;;;;;;17.40;99.90;17.70;99025.00;;;;341479;28;82488;-96
2023/05/21 00:36:39;;;;;;;;;;;17.40;99.90;17.80;99027.00;;;;342675;28;84169;-96
2023/05/21 00:36:54;;;;;;;;;;;17.50;99.90;17.80;99030.00;;;;340331;28;82418;-96
2023/05/21 00:37:08;;;;;;;;;;;17.50;99.90;17.80;99023.00;;;;342523;28;83200;-96
2023/05/21 00:37:20;;;;;;;;;;;17.50;99.90;17.80;99028.00;;;;343788;28;82499;-96
2023/05/21 00:37:34;;;;;;;;;;;17.50;99.90;17.70;99025.00;;;;341566;28;83043;-96
2023/05/21 00:37:46;;;;;;;;;;;17.50;99.90;17.70;99030.00;;;;340350;28;82414;-96
2023/05/21 00:37:58;;;;;;;;;;;17.50;99.90;17.70;99021.00;;;;341544;28;84192;-96
2023/05/21 00:38:10;;;;;;;;;;;17.50;99.90;17.60;99016.00;;;;338933;28;82460;-96
2023/05/21 00:38:22;;;;;;;;;;;17.40;99.90;17.60;99021.00;;;;338966;28;83089;-96
2023/05/21 00:38:36;;;;;;;;;;;17.40;99.90;17.50;99018.00;;;;341674;28;82416;-96
2023/05/21 00:38:49;;;;;;;;;;;17.40;99.90;17.50;99020.00;;;;341348;28;84429;-96
2023/05/21 00:39:03;;;;;;;;;;;17.40;99.90;17.50;99022.00;;;;338712;28;82623;-96
2023/05/21 00:39:15;;;;;;;;;;;17.40;99.90;17.60;99028.00;;;;337388;28;82449;-96
2023/05/21 00:39:27;;;;;;;;;;;17.40;99.90;17.60;99015.00;;;;338655;28;82432;-96
2023/05/21 00:39:40;;;;;;;;;;;17.40;99.90;17.60;99022.00;;;;341448;28;83338;-96
2023/05/21 00:39:52;;;;;;;;;;;17.40;99.90;17.70;99028.00;;;;341784;28;82445;-96
2023/05/21 00:40:06;;;;;;;;;;;17.40;99.90;17.70;99021.00;;;;338628;28;83286;-96
2023/05/21 00:40:18;;;;;;;;;;;17.40;99.90;17.70;99021.00;;;;337657;28;82507;-96
2023/05/21 00:40:30;;;;;;;;;;;17.40;99.90;17.70;99024.00;;;;340247;28;84944;-96
2023/05/21 00:40:43;;;;;;;;;;;17.40;99.90;17.60;99015.00;;;;340229;28;82510;-96
2023/05/21 00:40:58;;;;;;;;;;;17.40;99.90;17.60;99020.00;;;;341768;28;83275;-96
2023/05/21 00:41:12;;;;;;;;;;;17.40;99.90;17.60;99016.00;;;;341997;28;82500;-96
2023/05/21 00:41:24;;;;;;;;;;;17.40;99.90;17.60;99013.00;;;;341652;28;84191;-96
2023/05/21 00:41:38;;;;;;;;;;;17.40;99.90;17.60;99019.00;;;;338797;28;82552;-96
2023/05/21 00:41:52;;;;;;;;;;;17.40;99.90;17.70;99009.00;;;;339332;28;82610;-96
2023/05/21 00:42:04;;;;;;;;;;;17.40;99.90;17.60;99019.00;;;;341455;28;82535;-93
2023/05/21 00:42:17;;;;;;;;;;;17.40;99.90;17.60;99004.00;;;;341194;28;84281;-93
2023/05/21 00:42:29;;;;;;;;;;;17.40;99.90;17.70;99020.00;;;;339947;28;82386;-92
2023/05/21 00:42:46;;;;;;;;;;;17.40;99.90;17.60;99011.00;;;;340985;28;85474;-92
2023/05/21 00:42:58;;;;;;;;;;;17.40;99.90;17.60;99012.00;;;;340789;28;82523;-95
2023/05/21 00:43:10;;;;;;;;;;;17.40;99.90;17.60;99016.00;;;;341177;28;83640;-89
2023/05/21 00:43:25;;;;;;;;;;;17.40;99.90;17.50;99010.00;;;;343800;28;82584;-93
2023/05/21 00:43:40;;;;;;;;;;;17.40;99.90;17.50;99014.00;;;;342421;28;83230;-90
2023/05/21 00:43:54;;;;;;;;;;;17.40;99.90;17.60;99016.00;;;;342387;28;82603;-94
2023/05/21 00:44:09;;;;;;;;;;;17.40;99.90;17.60;99017.00;;;;341444;28;84307;-94
2023/05/21 00:44:22;;;;;;;;;;;17.40;99.90;17.60;99011.00;;;;341297;28;82629;-93
2023/05/21 00:44:35;;;;;;;;;;;17.40;99.90;17.60;99017.00;;;;341508;28;83744;-91
2023/05/21 00:44:47;;;;;;;;;;;17.40;99.90;17.60;99019.00;;;;341067;28;82481;-93
2023/05/21 00:45:02;;;;;;;;;;;17.40;99.90;17.60;99013.00;;;;341193;28;83091;-92
2023/05/21 00:45:14;;;;;;;;;;;17.40;99.90;17.60;99011.00;;;;341371;28;82295;-93
2023/05/21 00:45:28;;;;;;;;;;;17.40;99.90;17.60;99015.00;;;;343772;28;85815;-93
2023/05/21 00:45:45;;;;;;;;;;;17.40;99.90;17.60;99017.00;;;;345280;28;82541;-90
2023/05/21 00:45:58;;;;;;;;;;;17.40;99.90;17.50;99013.00;;;;342231;28;85231;-94
2023/05/21 00:46:15;;;;;;;;;;;17.30;99.90;17.40;99019.00;;;;338811;28;82556;-92
2023/05/21 00:46:28;;;;;;;;;;;17.40;99.90;17.50;99019.00;;;;341293;28;84273;-92
2023/05/21 00:46:40;;;;;;;;;;;17.30;99.90;17.50;99019.00;;;;342459;28;82647;-92
2023/05/21 00:46:52;;;;;;;;;;;17.30;99.90;17.50;99019.00;;;;342256;28;86020;-91
2023/05/21 00:47:05;;;;;;;;;;;17.30;99.90;17.50;99025.00;;;;342256;28;82545;-94
2023/05/21 00:47:20;;;;;;;;;;;17.30;99.90;17.50;99022.00;;;;342208;28;84931;-94
2023/05/21 00:47:33;;;;;;;;;;;17.30;99.90;17.40;99021.00;;;;340725;28;82574;-95
2023/05/21 00:47:47;;;;;;;;;;;17.30;99.90;17.50;99020.00;;;;339643;28;83341;-96
2023/05/21 00:48:00;;;;;;;;;;;17.30;99.90;17.40;99019.00;;;;341110;28;82470;-96
2023/05/21 00:48:13;;;;;;;;;;;17.30;99.90;17.50;99021.00;;;;341781;28;83456;-96
2023/05/21 00:48:28;;;;;;;;;;;17.30;99.90;17.50;99015.00;;;;341593;28;82466;-96
2023/05/21 00:48:40;;;;;;;;;;;17.30;99.90;17.50;99011.00;;;;340428;28;83179;-96
2023/05/21 00:48:52;;;;;;;;;;;17.30;99.90;17.50;99010.00;;;;338938;28;82534;-96
2023/05/21 00:49:05;;;;;;;;;;;17.30;99.90;17.50;99023.00;;;;337434;28;83352;-96
2023/05/21 00:49:18;;;;;;;;;;;17.30;99.90;17.40;99020.00;;;;340120;28;82535;-96
2023/05/21 00:49:32;;;;;;;;;;;17.30;99.90;17.40;99010.00;;;;338992;28;83409;-96
2023/05/21 00:49:47;;;;;;;;;;;17.30;99.90;17.40;99017.00;;;;342943;28;82527;-94
2023/05/21 00:49:59;;;;;;;;;;;17.30;99.90;17.30;99014.00;;;;343093;28;82963;-96
2023/05/21 00:50:13;;;;;;;;;;;17.30;99.90;17.20;99017.00;;;;341790;28;82498;-96
2023/05/21 00:50:26;;;;;;;;;;;17.30;99.90;17.20;99013.00;;;;341895;28;82958;-96
2023/05/21 00:50:39;;;;;;;;;;;17.30;99.90;17.10;99017.00;;;;341868;28;82430;-96
2023/05/21 00:50:51;;;;;;;;;;;17.30;99.90;17.10;99020.00;;;;341272;28;85551;-96
2023/05/21 00:51:04;;;;;;;;;;;17.20;99.90;17.10;99020.00;;;;339900;28;82556;-94
2023/05/21 00:51:17;;;;;;;;;;;17.20;99.90;17.10;99019.00;;;;338684;28;83007;-96
2023/05/21 00:51:29;;;;;;;;;;;17.20;99.90;17.10;99019.00;;;;340289;28;82340;-96
2023/05/21 00:51:43;;;;;;;;;;;17.20;99.90;17.10;99019.00;;;;340335;28;82509;-96
2023/05/21 00:52:00;;;;;;;;;;;17.20;99.90;17.20;99018.00;;;;342946;28;82428;-96
2023/05/21 00:52:19;;;;;;;;;;;17.20;99.90;17.10;99015.00;;;;341826;28;83057;-96
2023/05/21 00:52:32;;;;;;;;;;;17.20;99.90;17.20;99013.00;;;;338635;28;82605;-96
2023/05/21 00:52:45;;;;;;;;;;;17.20;99.90;17.20;99017.00;;;;340023;28;83395;-96
2023/05/21 00:52:58;;;;;;;;;;;17.20;99.90;17.20;99019.00;;;;340006;28;82354;-96
2023/05/21 00:53:11;;;;;;;;;;;17.20;99.90;17.20;99016.00;;;;340138;28;83130;-96
2023/05/21 00:53:24;;;;;;;;;;;17.20;99.90;17.20;99017.00;;;;339266;28;82300;-96
2023/05/21 00:53:37;;;;;;;;;;;17.10;99.90;17.10;99022.00;;;;343186;28;83953;-96
2023/05/21 00:53:51;;;;;;;;;;;17.10;99.90;17.20;99016.00;;;;341918;28;82552;-96
2023/05/21 00:54:04;;;;;;;;;;;17.10;99.90;17.20;99022.00;;;;339296;28;83105;-96
2023/05/21 00:54:17;;;;;;;;;;;17.10;99.90;17.30;99015.00;;;;339181;28;82663;-96
2023/05/21 00:54:30;;;;;;;;;;;17.10;99.90;17.20;99014.00;;;;340766;28;83311;-96
2023/05/21 00:54:45;;;;;;;;;;;17.10;99.90;17.20;99016.00;;;;339941;28;82546;-96
2023/05/21 00:54:58;;;;;;;;;;;17.10;99.90;17.20;99017.00;;;;339326;28;83419;-96
2023/05/21 00:55:12;;;;;;;;;;;17.10;99.90;17.20;99024.00;;;;340671;28;82468;-96
2023/05/21 00:55:25;;;;;;;;;;;17.10;99.90;17.20;99030.00;;;;341505;28;83988;-96
2023/05/21 00:55:37;;;;;;;;;;;17.10;99.90;17.20;99015.00;;;;342190;28;82441;-96
2023/05/21 00:55:49;;;;;;;;;;;17.10;99.90;17.20;99022.00;;;;341666;28;85576;-96
2023/05/21 00:56:01;;;;;;;;;;;17.10;99.90;17.20;99022.00;;;;343272;28;82541;-96
2023/05/21 00:56:15;;;;;;;;;;;17.10;99.90;17.30;99021.00;;;;340667;28;84326;-96
2023/05/21 00:56:28;;;;;;;;;;;17.10;99.90;17.20;99015.00;;;;341604;28;82556;-96
2023/05/21 00:56:40;;;;;;;;;;;17.10;99.90;17.20;99020.00;;;;339151;28;84153;-96
2023/05/21 00:56:54;;;;;;;;;;;17.10;99.90;17.10;99018.00;;;;341974;28;82390;-96
2023/05/21 00:57:06;;;;;;;;;;;17.10;99.90;17.20;99025.00;;;;339074;28;83920;-96
2023/05/21 00:57:21;;;;;;;;;;;17.10;99.90;17.10;99014.00;;;;339244;28;82421;-96
2023/05/21 00:57:35;;;;;;;;;;;17.10;99.90;17.10;99010.00;;;;340410;28;85308;-96
2023/05/21 00:57:48;;;;;;;;;;;17.10;99.90;17.20;99016.00;;;;339100;28;82259;-96
2023/05/21 00:58:00;;;;;;;;;;;17.10;99.90;17.20;99021.00;;;;339219;28;82597;-96
2023/05/21 00:58:12;;;;;;;;;;;17.10;99.90;17.20;99025.00;;;;339016;28;82625;-96
2023/05/21 00:58:25;;;;;;;;;;;17.10;99.90;17.20;99020.00;;;;341454;28;86317;-96
2023/05/21 00:58:39;;;;;;;;;;;17.10;99.90;17.30;99026.00;;;;340625;28;82305;-96
2023/05/21 00:58:56;;;;;;;;;;;17.10;99.90;17.20;99017.00;;;;340800;28;82206;-96
2023/05/21 00:59:08;;;;;;;;;;;17.10;99.90;17.20;99016.00;;;;342005;28;82519;-96
2023/05/21 00:59:22;;;;;;;;;;;17.10;99.90;17.10;99020.00;;;;341400;28;83477;-96
2023/05/21 00:59:34;;;;;;;;;;;17.10;99.90;17.10;99014.00;;;;341977;28;82429;-96
2023/05/21 00:59:48;;;;;;;;;;;17.10;99.90;17.30;99018.00;;;;339068;28;86481;-96
2023/05/21 01:00:00;;;;;;;;;;;17.10;99.90;17.30;99023.00;;;;340340;28;82534;-96
2023/05/21 01:00:13;;;;;;;;;;;17.10;99.90;17.20;99020.00;;;;342887;28;85908;-96
2023/05/21 01:00:27;;;;;;;;;;;17.10;99.90;17.20;99016.00;;;;341634;28;82446;-96
2023/05/21 01:00:39;;;;;;;;;;;17.10;99.90;17.10;99012.00;;;;340324;28;82763;-96
2023/05/21 01:00:54;;;;;;;;;;;17.00;99.90;17.10;99014.00;;;;342036;28;82501;-96
2023/05/21 01:01:12;;;;;;;;;;;17.10;99.90;17.00;99018.00;;;;341864;28;83015;-96
2023/05/21 01:01:25;;;;;;;;;;;17.00;99.90;17.20;99018.00;;;;338768;28;82591;-96
2023/05/21 01:01:38;;;;;;;;;;;17.00;99.90;17.20;99017.00;;;;339339;28;83011;-96
2023/05/21 01:01:54;;;;;;;;;;;17.00;99.90;17.20;99011.00;;;;340173;28;82550;-96
2023/05/21 01:02:08;;;;;;;;;;;17.00;99.90;17.20;99017.00;;;;341465;28;83125;-96
2023/05/21 01:02:22;;;;;;;;;;;17.10;99.90;17.10;99006.00;;;;343030;28;82517;-96
2023/05/21 01:02:35;;;;;;;;;;;17.00;99.90;17.10;99015.00;;;;340167;28;83321;-96
2023/05/21 01:02:48;;;;;;;;;;;17.00;99.90;17.10;99019.00;;;;341847;28;82235;-96
2023/05/21 01:03:01;;;;;;;;;;;17.00;99.90;17.10;99010.00;;;;341394;28;85157;-96
2023/05/21 01:03:15;;;;;;;;;;;17.00;99.90;17.10;99011.00;;;;340387;28;82545;-96
2023/05/21 01:03:29;;;;;;;;;;;17.00;99.90;17.20;99013.00;;;;341515;28;86293;-96
2023/05/21 01:03:42;;;;;;;;;;;17.00;99.90;17.20;99012.00;;;;341411;28;82538;-96
2023/05/21 01:03:56;;;;;;;;;;;17.00;99.90;17.20;99012.00;;;;337414;28;83039;-96
2023/05/21 01:04:09;;;;;;;;;;;17.00;99.90;17.20;99016.00;;;;341482;28;82512;-96
2023/05/21 01:04:26;;;;;;;;;;;17.00;99.90;17.20;99016.00;;;;341382;28;84271;-96
2023/05/21 01:04:38;;;;;;;;;;;17.00;99.90;17.30;99010.00;;;;340000;28;82598;-96
2023/05/21 01:04:53;;;;;;;;;;;17.00;99.90;17.20;99013.00;;;;341317;28;83147;-96
2023/05/21 01:05:06;;;;;;;;;;;17.00;99.90;17.30;99011.00;;;;341435;28;82520;-96
2023/05/21 01:05:18;;;;;;;;;;;17.00;99.90;17.30;99009.00;;;;340591;28;82991;-96
2023/05/21 01:05:31;;;;;;;;;;;17.10;99.90;17.30;99016.00;;;;338577;28;82553;-96
2023/05/21 01:05:45;;;;;;;;;;;17.00;99.90;17.40;99011.00;;;;340053;28;83184;-96
2023/05/21 01:06:00;;;;;;;;;;;17.10;99.90;17.50;99012.00;;;;340097;28;82557;-96
2023/05/21 01:06:13;;;;;;;;;;;17.10;99.90;17.50;99007.00;;;;338645;28;84918;-96
2023/05/21 01:06:27;;;;;;;;;;;17.10;99.90;17.40;99013.00;;;;338624;28;82634;-96
2023/05/21 01:06:41;;;;;;;;;;;17.10;99.90;17.40;99013.00;;;;338972;28;84453;-96
2023/05/21 01:06:55;;;;;;;;;;;17.10;99.90;17.40;99006.00;;;;339141;28;82212;-96
2023/05/21 01:07:08;;;;;;;;;;;17.10;99.90;17.40;99008.00;;;;341465;28;84277;-96
2023/05/21 01:07:22;;;;;;;;;;;17.10;99.90;17.30;99011.00;;;;341723;28;82453;-96
2023/05/21 01:07:35;;;;;;;;;;;17.10;99.90;17.40;99007.00;;;;341663;28;82194;-96